Time;durP1;ratioP1;P1;durP2;ratioP2;P2;SDS_P1;SDS_P2;PMS_P1;PMS_P2;Temp;Humidity;BMP_temperature;BMP_pressure;BME280_temperature;BME280_humidity;BME280_pressure;Samples;Min_cycle;Max_cycle;Signal;HPM_P1;HPM_P2
2023/06/09 00:00:28;;;;;;;23.20;13.10;;;;;;;-128.00;-1.00;-1.00;102613;1259;1004903;-79
2023/06/09 00:03:21;;;;;;;15.60;11.40;;;;;;;-128.00;-1.00;-1.00;102558;1260;1048913;-79
2023/06/09 00:05:48;;;;;;;17.70;11.90;;;;;;;-128.00;-1.00;-1.00;102634;1259;1048472;-81
2023/06/09 00:08:15;;;;;;;15.80;11.30;;;;;;;-128.00;-1.00;-1.00;102462;1259;1005969;-79
2023/06/09 00:10:42;;;;;;;17.50;12.30;;;;;;;-128.00;-1.00;-1.00;102681;1260;1006178;-79
2023/06/09 00:13:09;;;;;;;20.60;13.00;;;;;;;-128.00;-1.00;-1.00;102648;1259;1004588;-81
2023/06/09 00:15:36;;;;;;;14.20;10.80;;;;;;;-128.00;-1.00;-1.00;102704;1263;1004853;-81
2023/06/09 00:18:02;;;;;;;16.90;11.60;;;;;;;-128.00;-1.00;-1.00;102593;1259;1004800;-81
2023/06/09 00:20:33;;;;;;;16.50;11.50;;;;;;;-128.00;-1.00;-1.00;102609;1261;1004702;-81
2023/06/09 00:23:00;;;;;;;16.30;11.40;;;;;;;-128.00;-1.00;-1.00;102620;1259;1060608;-80
2023/06/09 00:25:27;;;;;;;17.70;12.40;;;;;;;-128.00;-1.00;-1.00;102583;1259;1003570;-79
2023/06/09 00:27:53;;;;;;;21.10;12.70;;;;;;;-128.00;-1.00;-1.00;103451;1259;1005725;-81
2023/06/09 00:30:22;;;;;;;20.30;13.70;;;;;;;-128.00;-1.00;-1.00;102462;1260;1004401;-79
2023/06/09 00:32:49;;;;;;;;;;;;;;;-128.00;-1.00;-1.00;102632;1259;1062512;-79
2023/06/09 00:35:15;;;;;;;20.50;13.60;;;;;;;-128.00;-1.00;-1.00;102660;1260;1004284;-80
2023/06/09 00:37:42;;;;;;;18.70;13.20;;;;;;;-128.00;-1.00;-1.00;104679;1259;1004205;-79
2023/06/09 00:40:08;;;;;;;19.00;12.90;;;;;;;-128.00;-1.00;-1.00;102606;1260;1004704;-81
2023/06/09 00:42:35;;;;;;;18.80;13.60;;;;;;;-128.00;-1.00;-1.00;102630;1259;1004633;-81
2023/06/09 00:45:02;;;;;;;19.10;12.90;;;;;;;-128.00;-1.00;-1.00;102587;1259;1003951;-79
2023/06/09 00:47:28;;;;;;;18.10;12.50;;;;;;;-128.00;-1.00;-1.00;104676;1259;1004797;-79
2023/06/09 00:49:54;;;;;;;17.80;13.00;;;;;;;-128.00;-1.00;-1.00;102553;1263;1004993;-81
2023/06/09 00:52:21;;;;;;;18.20;12.80;;;;;;;-128.00;-1.00;-1.00;102605;1259;1005122;-79
2023/06/09 00:54:47;;;;;;;16.30;12.90;;;;;;;-128.00;-1.00;-1.00;102614;1260;1005253;-81
2023/06/09 00:57:14;;;;;;;19.70;13.10;;;;;;;-128.00;-1.00;-1.00;102619;1259;1005279;-81
2023/06/09 00:59:40;;;;;;;16.40;13.00;;;;;;;-128.00;-1.00;-1.00;102658;1259;1004657;-81
2023/06/09 01:02:07;;;;;;;25.50;14.60;;;;;;;-128.00;-1.00;-1.00;102560;1260;1004248;-78
2023/06/09 01:04:34;;;;;;;28.00;16.30;;;;;;;-128.00;-1.00;-1.00;102597;1263;1004451;-79
2023/06/09 01:07:28;;;;;;;34.90;17.70;;;;;;;-128.00;-1.00;-1.00;104373;1259;1004589;-82
2023/06/09 01:10:02;;;;;;;28.10;15.50;;;;;;;-128.00;-1.00;-1.00;102543;1260;1066910;-79
2023/06/09 01:12:38;;;;;;;25.90;13.90;;;;;;;-128.00;-1.00;-1.00;105217;1259;1058858;-82
2023/06/09 01:15:18;;;;;;;20.20;12.80;;;;;;;-128.00;-1.00;-1.00;105196;1259;1058281;-81
2023/06/09 01:17:50;;;;;;;16.30;12.40;;;;;;;-128.00;-1.00;-1.00;103763;1259;1047526;-79
2023/06/09 01:20:57;;;;;;;18.00;13.40;;;;;;;-128.00;-1.00;-1.00;102452;1260;1049604;-81
2023/06/09 01:24:04;;;;;;;17.80;13.00;;;;;;;-128.00;-1.00;-1.00;102451;1261;1061696;-81
2023/06/09 01:26:30;;;;;;;17.90;12.70;;;;;;;-128.00;-1.00;-1.00;102486;1259;1057885;-79
2023/06/09 01:28:58;;;;;;;16.30;11.90;;;;;;;-128.00;-1.00;-1.00;102467;1259;1003987;-79
2023/06/09 01:31:24;;;;;;;16.50;11.90;;;;;;;-128.00;-1.00;-1.00;102581;1259;1005496;-81
2023/06/09 01:33:51;;;;;;;17.40;12.80;;;;;;;-128.00;-1.00;-1.00;102426;1260;1003766;-78
2023/06/09 01:36:17;;;;;;;18.20;13.00;;;;;;;-128.00;-1.00;-1.00;102694;1260;1004476;-80
2023/06/09 01:38:43;;;;;;;18.80;12.70;;;;;;;-128.00;-1.00;-1.00;102740;1261;1004522;-79
2023/06/09 01:41:10;;;;;;;17.60;12.60;;;;;;;-128.00;-1.00;-1.00;102557;1259;1004731;-79
2023/06/09 01:43:36;;;;;;;18.60;12.60;;;;;;;-128.00;-1.00;-1.00;102567;1259;1004912;-81
2023/06/09 01:46:03;;;;;;;18.20;12.10;;;;;;;-128.00;-1.00;-1.00;102563;1259;1004599;-81
2023/06/09 01:48:45;;;;;;;18.10;11.80;;;;;;;-128.00;-1.00;-1.00;102554;1259;1003686;-79
2023/06/09 01:51:18;;;;;;;16.60;11.70;;;;;;;-128.00;-1.00;-1.00;102621;1259;1060188;-80
2023/06/09 01:53:49;;;;;;;17.20;12.80;;;;;;;-128.00;-1.00;-1.00;102610;1261;1062441;-81
2023/06/09 01:56:21;;;;;;;19.00;12.30;;;;;;;-128.00;-1.00;-1.00;102519;1259;1049493;-81
2023/06/09 01:58:51;;;;;;;17.00;13.40;;;;;;;-128.00;-1.00;-1.00;103441;1259;1047802;-79
2023/06/09 02:01:18;;;;;;;19.60;14.20;;;;;;;-128.00;-1.00;-1.00;102593;1263;1062702;-81
2023/06/09 02:03:44;;;;;;;18.90;13.80;;;;;;;-128.00;-1.00;-1.00;102581;1259;1004433;-79
2023/06/09 02:06:11;;;;;;;18.00;13.30;;;;;;;-128.00;-1.00;-1.00;102631;1262;1005689;-79
2023/06/09 02:08:37;;;;;;;17.20;12.50;;;;;;;-128.00;-1.00;-1.00;102619;1259;1004892;-81
2023/06/09 02:11:04;;;;;;;17.90;12.90;;;;;;;-128.00;-1.00;-1.00;102480;1264;1004741;-79
2023/06/09 02:13:30;;;;;;;18.40;13.40;;;;;;;-128.00;-1.00;-1.00;102426;1259;1004879;-79
2023/06/09 02:15:57;;;;;;;17.20;11.40;;;;;;;-128.00;-1.00;-1.00;102416;1259;1004595;-81
2023/06/09 02:18:24;;;;;;;16.80;12.20;;;;;;;-128.00;-1.00;-1.00;102606;1259;1004512;-81
2023/06/09 02:20:51;;;;;;;17.10;12.40;;;;;;;-128.00;-1.00;-1.00;102589;1261;1004108;-78
2023/06/09 02:23:19;;;;;;;18.80;12.10;;;;;;;-128.00;-1.00;-1.00;103790;1259;1004189;-81
2023/06/09 02:25:45;;;;;;;19.10;14.40;;;;;;;-128.00;-1.00;-1.00;103487;1259;1004436;-78
2023/06/09 02:28:12;;;;;;;17.30;13.40;;;;;;;-128.00;-1.00;-1.00;102664;1259;1005118;-78
2023/06/09 02:30:38;;;;;;;18.50;14.10;;;;;;;-128.00;-1.00;-1.00;102497;1259;1003941;-81
2023/06/09 02:33:05;;;;;;;17.10;13.40;;;;;;;-128.00;-1.00;-1.00;102687;1260;1004597;-79
2023/06/09 02:35:31;;;;;;;17.10;12.10;;;;;;;-128.00;-1.00;-1.00;102686;1258;1006020;-81
2023/06/09 02:37:58;;;;;;;17.40;11.40;;;;;;;-128.00;-1.00;-1.00;102669;1259;1005826;-79
2023/06/09 02:40:27;;;;;;;17.10;13.40;;;;;;;-128.00;-1.00;-1.00;102584;1263;1004838;-78
2023/06/09 02:42:54;;;;;;;18.70;13.10;;;;;;;-128.00;-1.00;-1.00;102660;1261;1058452;-78
2023/06/09 02:45:20;;;;;;;22.00;14.10;;;;;;;-128.00;-1.00;-1.00;102705;1259;1004472;-79
2023/06/09 02:47:47;;;;;;;18.70;15.10;;;;;;;-128.00;-1.00;-1.00;102706;1259;1004729;-81
2023/06/09 02:50:13;;;;;;;19.60;12.90;;;;;;;-128.00;-1.00;-1.00;102442;1259;1003918;-80
2023/06/09 02:52:40;;;;;;;18.90;12.80;;;;;;;-128.00;-1.00;-1.00;101986;1259;1003932;-78
2023/06/09 02:55:06;;;;;;;20.60;12.90;;;;;;;-128.00;-1.00;-1.00;102522;1259;1004783;-81
2023/06/09 02:57:33;;;;;;;17.50;13.60;;;;;;;-128.00;-1.00;-1.00;102380;1259;1004927;-79
2023/06/09 02:59:59;;;;;;;18.50;13.40;;;;;;;-128.00;-1.00;-1.00;102410;1259;1005193;-81
2023/06/09 03:02:27;;;;;;;20.90;13.60;;;;;;;-128.00;-1.00;-1.00;102455;1259;1005413;-79
2023/06/09 03:04:54;;;;;;;20.00;13.80;;;;;;;-128.00;-1.00;-1.00;102466;1259;1004686;-81
2023/06/09 03:07:20;;;;;;;20.10;13.60;;;;;;;-128.00;-1.00;-1.00;102450;1262;1004645;-81
2023/06/09 03:09:47;;;;;;;18.10;13.30;;;;;;;-128.00;-1.00;-1.00;102352;1259;1005221;-82
2023/06/09 03:12:14;;;;;;;17.00;13.30;;;;;;;-128.00;-1.00;-1.00;102453;1263;1005219;-81
2023/06/09 03:14:40;;;;;;;19.50;13.30;;;;;;;-128.00;-1.00;-1.00;102493;1259;1004733;-81
2023/06/09 03:17:06;;;;;;;20.60;13.40;;;;;;;-128.00;-1.00;-1.00;102469;1260;1005020;-80
2023/06/09 03:19:33;;;;;;;18.40;13.00;;;;;;;-128.00;-1.00;-1.00;101935;1260;1003680;-80
2023/06/09 03:22:03;;;;;;;16.80;13.10;;;;;;;-128.00;-1.00;-1.00;102018;1259;1004592;-79
2023/06/09 03:24:29;;;;;;;15.70;12.50;;;;;;;-128.00;-1.00;-1.00;102558;1263;1046445;-81
2023/06/09 03:26:56;;;;;;;16.10;12.70;;;;;;;-128.00;-1.00;-1.00;102535;1259;1004181;-81
2023/06/09 03:29:22;;;;;;;23.10;13.50;;;;;;;-128.00;-1.00;-1.00;102423;1259;1004085;-80
2023/06/09 03:31:49;;;;;;;20.70;14.00;;;;;;;-128.00;-1.00;-1.00;102630;1262;1004161;-81
2023/06/09 03:34:15;;;;;;;20.70;14.60;;;;;;;-128.00;-1.00;-1.00;102702;1259;1003870;-78
2023/06/09 03:36:41;;;;;;;26.50;14.80;;;;;;;-128.00;-1.00;-1.00;102531;1264;1004819;-81
2023/06/09 03:39:08;;;;;;;23.20;15.60;;;;;;;-128.00;-1.00;-1.00;102697;1260;1004345;-81
2023/06/09 03:41:34;;;;;;;21.00;13.20;;;;;;;-128.00;-1.00;-1.00;102663;1260;1005337;-78
2023/06/09 03:44:00;;;;;;;16.30;12.40;;;;;;;-128.00;-1.00;-1.00;102667;1258;1005305;-79
2023/06/09 03:46:27;;;;;;;17.10;13.10;;;;;;;-128.00;-1.00;-1.00;102698;1262;1004510;-78
2023/06/09 03:48:53;;;;;;;16.80;13.00;;;;;;;-128.00;-1.00;-1.00;102683;1259;1005135;-79
2023/06/09 03:51:20;;;;;;;21.10;14.20;;;;;;;-128.00;-1.00;-1.00;102573;1259;1062637;-80
2023/06/09 03:53:46;;;;;;;19.90;14.10;;;;;;;-128.00;-1.00;-1.00;102601;1260;1003870;-81
2023/06/09 03:56:13;;;;;;;17.40;14.00;;;;;;;-128.00;-1.00;-1.00;102005;1263;1004854;-78
2023/06/09 03:58:40;;;;;;;19.80;15.60;;;;;;;-128.00;-1.00;-1.00;102481;1259;1004125;-81
2023/06/09 04:01:10;;;;;;;21.50;14.30;;;;;;;-128.00;-1.00;-1.00;102528;1259;1003598;-78
2023/06/09 04:03:37;;;;;;;18.10;14.40;;;;;;;-128.00;-1.00;-1.00;102561;1260;1061369;-78
2023/06/09 04:06:04;;;;;;;21.50;13.10;;;;;;;-128.00;-1.00;-1.00;102640;1259;1005625;-79
2023/06/09 04:08:31;;;;;;;17.50;13.20;;;;;;;-128.00;-1.00;-1.00;102385;1262;1005413;-79
2023/06/09 04:10:58;;;;;;;21.00;13.60;;;;;;;-128.00;-1.00;-1.00;102548;1259;1003485;-79
2023/06/09 04:13:24;;;;;;;19.50;14.40;;;;;;;-128.00;-1.00;-1.00;102503;1259;1005404;-79
2023/06/09 04:15:51;;;;;;;15.90;12.90;;;;;;;-128.00;-1.00;-1.00;102581;1259;1004985;-81
2023/06/09 04:18:19;;;;;;;15.70;12.70;;;;;;;-128.00;-1.00;-1.00;102596;1259;1004223;-78
2023/06/09 04:20:45;;;;;;;19.00;12.60;;;;;;;-128.00;-1.00;-1.00;102700;1259;1004818;-82
2023/06/09 04:23:11;;;;;;;19.80;12.70;;;;;;;-128.00;-1.00;-1.00;102576;1259;1005269;-81
2023/06/09 04:25:39;;;;;;;16.40;12.00;;;;;;;-128.00;-1.00;-1.00;102537;1259;1003792;-81
2023/06/09 04:28:08;;;;;;;15.60;12.30;;;;;;;-128.00;-1.00;-1.00;102609;1259;1004981;-79
2023/06/09 04:30:37;;;;;;;16.50;12.10;;;;;;;-128.00;-1.00;-1.00;103080;1259;1059368;-79
2023/06/09 04:33:04;;;;;;;17.60;12.10;;;;;;;-128.00;-1.00;-1.00;102711;1259;1046330;-79
2023/06/09 04:35:31;;;;;;;15.60;12.40;;;;;;;-128.00;-1.00;-1.00;102530;1259;1005356;-79
2023/06/09 04:37:59;;;;;;;16.90;13.20;;;;;;;-128.00;-1.00;-1.00;102540;1259;1004635;-82
2023/06/09 04:40:27;;;;;;;15.50;12.50;;;;;;;-128.00;-1.00;-1.00;102491;1259;1057137;-82
2023/06/09 04:42:56;;;;;;;15.00;12.40;;;;;;;-128.00;-1.00;-1.00;102498;1259;1005086;-79
2023/06/09 04:45:33;;;;;;;23.10;13.80;;;;;;;-128.00;-1.00;-1.00;102770;1259;1046105;-82
2023/06/09 04:48:00;;;;;;;15.00;11.80;;;;;;;-128.00;-1.00;-1.00;102500;1259;1049437;-82
2023/06/09 04:50:32;;;;;;;21.80;12.80;;;;;;;-128.00;-1.00;-1.00;102580;1261;1004816;-79
2023/06/09 04:53:03;;;;;;;17.90;12.30;;;;;;;-128.00;-1.00;-1.00;102423;1264;1057633;-81
2023/06/09 04:55:30;;;;;;;13.10;11.40;;;;;;;-128.00;-1.00;-1.00;102482;1262;1058450;-79
2023/06/09 04:57:57;;;;;;;14.20;11.80;;;;;;;-128.00;-1.00;-1.00;102511;1265;1004114;-80
2023/06/09 05:00:26;;;;;;;18.30;12.40;;;;;;;-128.00;-1.00;-1.00;102570;1260;1004189;-82
2023/06/09 05:02:54;;;;;;;20.50;16.80;;;;;;;-128.00;-1.00;-1.00;102566;1262;1062129;-79
2023/06/09 05:05:21;;;;;;;17.70;13.60;;;;;;;-128.00;-1.00;-1.00;102691;1259;1004141;-80
2023/06/09 05:07:47;;;;;;;17.20;13.50;;;;;;;-128.00;-1.00;-1.00;102709;1260;1003635;-81
2023/06/09 05:10:13;;;;;;;19.10;13.40;;;;;;;-128.00;-1.00;-1.00;102497;1259;1004070;-79
2023/06/09 05:12:40;;;;;;;15.10;11.40;;;;;;;-128.00;-1.00;-1.00;102601;1261;1004599;-80
2023/06/09 05:15:07;;;;;;;13.00;11.50;;;;;;;-128.00;-1.00;-1.00;102484;1260;1004337;-81
2023/06/09 05:17:33;;;;;;;15.00;11.60;;;;;;;-128.00;-1.00;-1.00;102563;1263;1004533;-79
2023/06/09 05:20:00;;;;;;;16.90;14.90;;;;;;;-128.00;-1.00;-1.00;102631;1262;1004149;-82
2023/06/09 05:22:27;;;;;;;17.20;12.40;;;;;;;-128.00;-1.00;-1.00;102589;1262;1004377;-79
2023/06/09 05:24:53;;;;;;;12.60;10.70;;;;;;;-128.00;-1.00;-1.00;102572;1259;1004244;-79
2023/06/09 05:27:20;;;;;;;17.20;12.20;;;;;;;-128.00;-1.00;-1.00;102607;1258;1004104;-82
2023/06/09 05:29:46;;;;;;;16.60;12.10;;;;;;;-128.00;-1.00;-1.00;102543;1259;1004255;-82
2023/06/09 05:32:13;;;;;;;16.40;10.90;;;;;;;-128.00;-1.00;-1.00;102576;1262;1003594;-79
2023/06/09 05:34:40;;;;;;;16.20;11.80;;;;;;;-128.00;-1.00;-1.00;102460;1259;1003501;-82
2023/06/09 05:37:06;;;;;;;17.90;13.00;;;;;;;-128.00;-1.00;-1.00;102587;1258;1004178;-79
2023/06/09 05:39:33;;;;;;;13.20;10.80;;;;;;;-128.00;-1.00;-1.00;102605;1260;1004496;-82
2023/06/09 05:42:00;;;;;;;16.80;10.10;;;;;;;-128.00;-1.00;-1.00;102575;1257;1005144;-80
2023/06/09 05:44:28;;;;;;;12.50;10.00;;;;;;;-128.00;-1.00;-1.00;102449;1260;1003701;-79
2023/06/09 05:46:55;;;;;;;10.50;9.10;;;;;;;-128.00;-1.00;-1.00;102611;1258;1005160;-80
2023/06/09 05:49:21;;;;;;;11.00;8.80;;;;;;;-128.00;-1.00;-1.00;102703;1258;1004675;-79
2023/06/09 05:51:48;;;;;;;10.50;8.90;;;;;;;-128.00;-1.00;-1.00;102513;1259;1004099;-82
2023/06/09 05:54:14;;;;;;;10.80;7.80;;;;;;;-128.00;-1.00;-1.00;102621;1260;1005082;-80
2023/06/09 05:56:40;;;;;;;13.10;8.60;;;;;;;-128.00;-1.00;-1.00;102558;1261;1004288;-80
2023/06/09 05:59:07;;;;;;;11.40;8.20;;;;;;;-128.00;-1.00;-1.00;102558;1263;1004194;-80
2023/06/09 06:01:34;;;;;;;10.00;8.00;;;;;;;-128.00;-1.00;-1.00;102603;1259;1005267;-80
2023/06/09 06:04:01;;;;;;;10.50;8.70;;;;;;;-128.00;-1.00;-1.00;102618;1259;1004449;-82
2023/06/09 06:06:30;;;;;;;11.80;8.30;;;;;;;-128.00;-1.00;-1.00;102615;1260;1004089;-79
2023/06/09 06:08:56;;;;;;;10.80;7.80;;;;;;;-128.00;-1.00;-1.00;102808;1259;1061045;-82
2023/06/09 06:11:22;;;;;;;10.70;8.40;;;;;;;-128.00;-1.00;-1.00;102707;1259;1003664;-80
2023/06/09 06:13:49;;;;;;;10.20;8.10;;;;;;;-128.00;-1.00;-1.00;102600;1259;1004687;-79
2023/06/09 06:16:16;;;;;;;9.30;7.50;;;;;;;-128.00;-1.00;-1.00;102723;1259;1004796;-82
2023/06/09 06:18:44;;;;;;;12.20;8.40;;;;;;;-128.00;-1.00;-1.00;102668;1259;1004602;-79
2023/06/09 06:21:11;;;;;;;9.90;8.40;;;;;;;-128.00;-1.00;-1.00;103668;1262;1003962;-82
2023/06/09 06:23:38;;;;;;;8.50;7.60;;;;;;;-128.00;-1.00;-1.00;102954;1259;1004988;-80
2023/06/09 06:26:05;;;;;;;7.60;6.80;;;;;;;-128.00;-1.00;-1.00;102814;1261;1005053;-79
2023/06/09 06:28:31;;;;;;;7.90;7.00;;;;;;;-128.00;-1.00;-1.00;102807;1260;1004426;-82
2023/06/09 06:30:58;;;;;;;8.20;7.40;;;;;;;-128.00;-1.00;-1.00;102934;1259;1004632;-80
2023/06/09 06:33:29;;;;;;;8.20;6.80;;;;;;;-128.00;-1.00;-1.00;102916;1259;1004191;-82
2023/06/09 06:35:56;;;;;;;9.20;7.00;;;;;;;-128.00;-1.00;-1.00;102812;1259;1045533;-79
2023/06/09 06:38:22;;;;;;;11.40;7.10;;;;;;;-128.00;-1.00;-1.00;102758;1263;1005296;-81
2023/06/09 06:40:50;;;;;;;10.10;8.70;;;;;;;-128.00;-1.00;-1.00;102984;1260;1003643;-79
2023/06/09 06:43:16;;;;;;;10.00;7.90;;;;;;;-128.00;-1.00;-1.00;102924;1259;1005239;-82
2023/06/09 06:45:43;;;;;;;11.10;9.90;;;;;;;-128.00;-1.00;-1.00;102942;1259;1004710;-79
2023/06/09 06:48:09;;;;;;;12.00;9.60;;;;;;;-128.00;-1.00;-1.00;103082;1259;1003750;-81
2023/06/09 06:50:37;;;;;;;9.60;8.50;;;;;;;-128.00;-1.00;-1.00;103171;1259;1005025;-81
2023/06/09 06:53:03;;;;;;;9.90;8.30;;;;;;;-128.00;-1.00;-1.00;102959;1259;1003430;-81
2023/06/09 06:55:30;;;;;;;9.60;8.60;;;;;;;-128.00;-1.00;-1.00;102916;1259;1006992;-79
2023/06/09 06:57:57;;;;;;;10.50;9.10;;;;;;;-128.00;-1.00;-1.00;102699;1263;1004497;-81
2023/06/09 07:00:24;;;;;;;10.50;9.50;;;;;;;-128.00;-1.00;-1.00;102878;1259;1004298;-81
2023/06/09 07:02:51;;;;;;;12.40;9.30;;;;;;;-128.00;-1.00;-1.00;102996;1259;1004210;-81
2023/06/09 07:05:17;;;;;;;9.50;8.60;;;;;;;-128.00;-1.00;-1.00;102842;1259;1005142;-81
2023/06/09 07:07:44;;;;;;;9.80;8.30;;;;;;;-128.00;-1.00;-1.00;102824;1260;1004089;-81
2023/06/09 07:10:10;;;;;;;10.70;8.90;;;;;;;-128.00;-1.00;-1.00;102938;1259;1005067;-82
2023/06/09 07:12:37;;;;;;;11.30;9.50;;;;;;;-128.00;-1.00;-1.00;103029;1259;1004099;-79
2023/06/09 07:15:04;;;;;;;10.60;9.50;;;;;;;-128.00;-1.00;-1.00;102896;1260;1005229;-81
2023/06/09 07:17:30;;;;;;;11.40;9.90;;;;;;;-128.00;-1.00;-1.00;102808;1259;1003814;-79
2023/06/09 07:19:57;;;;;;;10.90;9.40;;;;;;;-128.00;-1.00;-1.00;103071;1260;1005031;-81
2023/06/09 07:22:24;;;;;;;10.50;9.40;;;;;;;-128.00;-1.00;-1.00;102952;1260;1003869;-82
2023/06/09 07:24:50;;;;;;;10.90;9.60;;;;;;;-128.00;-1.00;-1.00;102961;1259;1005494;-79
2023/06/09 07:27:17;;;;;;;13.00;9.40;;;;;;;-128.00;-1.00;-1.00;102838;1260;1003818;-80
2023/06/09 07:29:43;;;;;;;10.70;9.60;;;;;;;-128.00;-1.00;-1.00;102813;1260;1004968;-79
2023/06/09 07:32:10;;;;;;;10.00;9.00;;;;;;;-128.00;-1.00;-1.00;103060;1259;1005065;-79
2023/06/09 07:34:37;;;;;;;11.60;9.60;;;;;;;-128.00;-1.00;-1.00;102928;1264;1003971;-79
2023/06/09 07:37:05;;;;;;;10.40;9.40;;;;;;;-128.00;-1.00;-1.00;102822;1260;1004143;-79
2023/06/09 07:39:34;;;;;;;10.70;9.60;;;;;;;-128.00;-1.00;-1.00;102720;1263;1003702;-82
2023/06/09 07:42:00;;;;;;;11.40;9.20;;;;;;;-128.00;-1.00;-1.00;102698;1259;1063227;-81
2023/06/09 07:44:27;;;;;;;14.80;10.70;;;;;;;-128.00;-1.00;-1.00;102770;1260;1004660;-79
2023/06/09 07:46:53;;;;;;;11.60;10.00;;;;;;;-128.00;-1.00;-1.00;102733;1259;1003591;-79
2023/06/09 07:49:19;;;;;;;10.60;9.50;;;;;;;-128.00;-1.00;-1.00;102875;1263;1005230;-81
2023/06/09 07:51:49;;;;;;;10.10;9.10;;;;;;;-128.00;-1.00;-1.00;103008;1263;1003934;-82
2023/06/09 07:54:16;;;;;;;11.20;10.00;;;;;;;-128.00;-1.00;-1.00;102978;1259;1066221;-82
2023/06/09 07:56:48;;;;;;;10.30;9.20;;;;;;;-128.00;-1.00;-1.00;102910;1259;1004416;-81
2023/06/09 07:59:16;;;;;;;11.30;10.00;;;;;;;-128.00;-1.00;-1.00;102752;1259;1059274;-79
2023/06/09 08:01:43;;;;;;;11.30;10.10;;;;;;;-128.00;-1.00;-1.00;103941;1259;1046170;-82
2023/06/09 08:04:10;;;;;;;14.50;11.20;;;;;;;-128.00;-1.00;-1.00;102990;1262;1004840;-80
2023/06/09 08:06:37;;;;;;;11.00;8.60;;;;;;;-128.00;-1.00;-1.00;102902;1257;1005009;-80
2023/06/09 08:09:04;;;;;;;11.80;10.40;;;;;;;-128.00;-1.00;-1.00;102922;1259;1004638;-80
2023/06/09 08:11:30;;;;;;;10.90;8.10;;;;;;;-128.00;-1.00;-1.00;103122;1259;1003923;-82
2023/06/09 08:13:57;;;;;;;7.90;6.90;;;;;;;-128.00;-1.00;-1.00;103000;1259;1004444;-82
2023/06/09 08:16:24;;;;;;;9.50;7.50;;;;;;;-128.00;-1.00;-1.00;102883;1259;1005075;-79
2023/06/09 08:18:50;;;;;;;7.70;6.50;;;;;;;-128.00;-1.00;-1.00;102776;1259;1005020;-82
2023/06/09 08:21:17;;;;;;;10.30;8.30;;;;;;;-128.00;-1.00;-1.00;102974;1261;1004054;-80
2023/06/09 08:23:43;;;;;;;13.80;9.50;;;;;;;-128.00;-1.00;-1.00;102753;1259;1003842;-79
2023/06/09 08:26:10;;;;;;;9.70;8.70;;;;;;;-128.00;-1.00;-1.00;102890;1259;1004926;-79
2023/06/09 08:28:38;;;;;;;8.90;8.00;;;;;;;-128.00;-1.00;-1.00;102683;1259;1005279;-82
2023/06/09 08:31:07;;;;;;;8.90;7.50;;;;;;;-128.00;-1.00;-1.00;102826;1264;1062752;-82
2023/06/09 08:33:35;;;;;;;10.00;7.70;;;;;;;-128.00;-1.00;-1.00;102981;1259;1005259;-82
2023/06/09 08:36:05;;;;;;;9.70;7.50;;;;;;;-128.00;-1.00;-1.00;102902;1260;1004686;-80
2023/06/09 08:38:32;;;;;;;8.70;7.60;;;;;;;-128.00;-1.00;-1.00;102907;1259;1047029;-79
2023/06/09 08:41:07;;;;;;;9.90;7.80;;;;;;;-128.00;-1.00;-1.00;103127;1260;1004350;-82
2023/06/09 08:43:34;;;;;;;10.30;6.80;;;;;;;-128.00;-1.00;-1.00;102942;1260;1062535;-79
2023/06/09 08:46:05;;;;;;;10.70;8.00;;;;;;;-128.00;-1.00;-1.00;102890;1260;1004811;-83
2023/06/09 08:48:33;;;;;;;9.60;7.00;;;;;;;-128.00;-1.00;-1.00;103101;1262;1059126;-82
2023/06/09 08:51:00;;;;;;;10.20;7.20;;;;;;;-128.00;-1.00;-1.00;103084;1259;1004439;-80
2023/06/09 08:53:27;;;;;;;7.80;7.10;;;;;;;-128.00;-1.00;-1.00;102863;1259;1003891;-82
2023/06/09 08:55:54;;;;;;;8.60;6.30;;;;;;;-128.00;-1.00;-1.00;102962;1260;1005235;-80
2023/06/09 08:58:24;;;;;;;7.70;6.60;;;;;;;-128.00;-1.00;-1.00;102769;1259;1004001;-82
2023/06/09 09:00:50;;;;;;;6.90;6.20;;;;;;;-128.00;-1.00;-1.00;102996;1262;1061697;-82
2023/06/09 09:03:18;;;;;;;7.40;6.70;;;;;;;-128.00;-1.00;-1.00;103062;1260;1004907;-81
2023/06/09 09:05:47;;;;;;;7.60;5.90;;;;;;;-128.00;-1.00;-1.00;102996;1259;1046205;-82
2023/06/09 09:08:16;;;;;;;7.10;6.00;;;;;;;-128.00;-1.00;-1.00;103008;1259;1063956;-80
2023/06/09 09:10:45;;;;;;;6.50;5.50;;;;;;;-128.00;-1.00;-1.00;102978;1259;1004577;-82
2023/06/09 09:13:12;;;;;;;6.00;5.30;;;;;;;-128.00;-1.00;-1.00;103070;1259;1058882;-79
2023/06/09 09:15:48;;;;;;;6.80;5.60;;;;;;;-128.00;-1.00;-1.00;102905;1259;1004424;-80
2023/06/09 09:18:19;;;;;;;7.10;5.80;;;;;;;-128.00;-1.00;-1.00;102813;1264;1048055;-84
2023/06/09 09:20:46;;;;;;;6.50;5.50;;;;;;;-128.00;-1.00;-1.00;102902;1259;1062569;-82
2023/06/09 09:23:13;;;;;;;6.90;6.10;;;;;;;-128.00;-1.00;-1.00;105139;1259;1004536;-83
2023/06/09 09:25:40;;;;;;;9.40;5.90;;;;;;;-128.00;-1.00;-1.00;105129;1259;1004780;-83
2023/06/09 09:28:11;;;;;;;9.30;6.50;;;;;;;-128.00;-1.00;-1.00;103549;1259;1004362;-81
2023/06/09 09:30:41;;;;;;;6.80;5.90;;;;;;;-128.00;-1.00;-1.00;102716;1258;1047233;-82
2023/06/09 09:33:09;;;;;;;7.80;6.40;;;;;;;-128.00;-1.00;-1.00;102869;1259;1062990;-82
2023/06/09 09:35:37;;;;;;;9.80;6.40;;;;;;;-128.00;-1.00;-1.00;102890;1263;1003599;-81
2023/06/09 09:38:10;;;;;;;7.80;6.20;;;;;;;-128.00;-1.00;-1.00;104039;1263;1060104;-80
2023/06/09 09:40:46;;;;;;;7.70;6.90;;;;;;;-128.00;-1.00;-1.00;102877;1260;1043815;-82
2023/06/09 09:43:14;;;;;;;7.60;6.80;;;;;;;-128.00;-1.00;-1.00;102963;1259;1047360;-82
2023/06/09 09:45:42;;;;;;;8.00;7.00;;;;;;;-128.00;-1.00;-1.00;102956;1260;1005206;-80
2023/06/09 09:48:11;;;;;;;7.80;7.00;;;;;;;-128.00;-1.00;-1.00;102910;1260;1058805;-80
2023/06/09 09:50:38;;;;;;;;;;;;;;;-128.00;-1.00;-1.00;103052;1260;1004146;-82
2023/06/09 09:53:07;;;;;;;8.00;7.00;;;;;;;-128.00;-1.00;-1.00;102980;1260;1004529;-80
2023/06/09 09:55:38;;;;;;;11.10;8.40;;;;;;;-128.00;-1.00;-1.00;103018;1259;1047892;-80
2023/06/09 09:58:06;;;;;;;9.40;8.00;;;;;;;-128.00;-1.00;-1.00;102909;1260;1063111;-80
2023/06/09 10:00:35;;;;;;;9.00;7.50;;;;;;;-128.00;-1.00;-1.00;102675;1265;1005141;-79
2023/06/09 10:03:07;;;;;;;7.80;6.90;;;;;;;-128.00;-1.00;-1.00;102682;1260;1059836;-82
2023/06/09 10:05:35;;;;;;;8.20;7.40;;;;;;;-128.00;-1.00;-1.00;102673;1259;1047940;-83
2023/06/09 10:08:03;;;;;;;9.70;8.00;;;;;;;-128.00;-1.00;-1.00;102736;1260;1004667;-80
2023/06/09 10:10:29;;;;;;;12.10;8.50;;;;;;;-128.00;-1.00;-1.00;102750;1260;1005026;-80
2023/06/09 10:12:57;;;;;;;8.60;7.70;;;;;;;-128.00;-1.00;-1.00;102517;1265;1003641;-80
2023/06/09 10:15:23;;;;;;;9.30;8.40;;;;;;;-128.00;-1.00;-1.00;102625;1259;1003410;-80
2023/06/09 10:17:52;;;;;;;10.50;9.00;;;;;;;-128.00;-1.00;-1.00;102450;1265;1004419;-79
2023/06/09 10:20:18;;;;;;;11.30;10.10;;;;;;;-128.00;-1.00;-1.00;102604;1263;1049543;-80
2023/06/09 10:22:46;;;;;;;10.80;9.70;;;;;;;-128.00;-1.00;-1.00;102611;1259;1004770;-82
2023/06/09 10:25:13;;;;;;;13.00;7.90;;;;;;;-128.00;-1.00;-1.00;102657;1259;1004131;-81
2023/06/09 10:27:39;;;;;;;8.30;7.30;;;;;;;-128.00;-1.00;-1.00;102540;1264;1004748;-81
2023/06/09 10:30:08;;;;;;;10.50;9.20;;;;;;;-128.00;-1.00;-1.00;102547;1259;1004430;-82
2023/06/09 10:32:46;;;;;;;11.70;8.30;;;;;;;-128.00;-1.00;-1.00;102764;1261;1048293;-81
2023/06/09 10:35:15;;;;;;;10.90;8.20;;;;;;;-128.00;-1.00;-1.00;102612;1262;1062661;-81
2023/06/09 10:37:41;;;;;;;11.90;9.80;;;;;;;-128.00;-1.00;-1.00;102793;1260;1058335;-80
2023/06/09 10:40:23;;;;;;;22.30;17.40;;;;;;;-128.00;-1.00;-1.00;102638;1260;1003925;-81
2023/06/09 10:43:23;;;;;;;16.30;11.70;;;;;;;-128.00;-1.00;-1.00;102746;1260;1047950;-82
2023/06/09 10:45:54;;;;;;;13.30;9.80;;;;;;;-128.00;-1.00;-1.00;102821;1263;1049901;-79
2023/06/09 10:48:40;;;;;;;14.90;11.40;;;;;;;-128.00;-1.00;-1.00;102576;1259;1062708;-83
2023/06/09 10:51:26;;;;;;;14.00;11.10;;;;;;;-128.00;-1.00;-1.00;102898;1259;1060910;-80
2023/06/09 10:54:07;;;;;;;10.60;7.40;;;;;;;-128.00;-1.00;-1.00;102704;1259;1058680;-83
2023/06/09 10:56:34;;;;;;;8.00;6.40;;;;;;;-128.00;-1.00;-1.00;102439;1263;1048854;-80
2023/06/09 10:59:01;;;;;;;9.50;5.10;;;;;;;-128.00;-1.00;-1.00;102471;1260;1004558;-79
2023/06/09 11:01:27;;;;;;;5.80;4.50;;;;;;;-128.00;-1.00;-1.00;102622;1260;1004671;-82
2023/06/09 11:03:54;;;;;;;9.00;4.80;;;;;;;-128.00;-1.00;-1.00;102896;1260;1005755;-79
2023/06/09 11:06:20;;;;;;;7.30;5.10;;;;;;;-128.00;-1.00;-1.00;102869;1265;1004958;-79
2023/06/09 11:09:09;;;;;;;8.90;6.10;;;;;;;-128.00;-1.00;-1.00;102626;1259;1004523;-80
2023/06/09 11:11:51;;;;;;;8.10;6.50;;;;;;;-128.00;-1.00;-1.00;102833;1260;1047025;-81